sensor_id;sensor_type;location;lat;lon;timestamp;pressure;altitude;pressure_sealevel;temperature;humidity
51067;BME280;37112;45.892;-123.962;2022-08-23T00:00:57;101914.27;;;22.82;68.30
51067;BME280;37112;45.892;-123.962;2022-08-23T00:03:10;101909.91;;;22.80;68.40
51067;BME280;37112;45.892;-123.962;2022-08-23T00:05:23;101913.63;;;22.83;68.71
51067;BME280;37112;45.892;-123.962;2022-08-23T00:07:37;101917.08;;;22.79;68.64
51067;BME280;37112;45.892;-123.962;2022-08-23T00:09:51;101913.02;;;22.82;68.66
51067;BME280;37112;45.892;-123.962;2022-08-23T00:12:11;101915.67;;;22.80;68.58
51067;BME280;37112;45.892;-123.962;2022-08-23T00:14:28;101915.73;;;22.76;68.32
51067;BME280;37112;45.892;-123.962;2022-08-23T00:16:44;101914.05;;;22.73;68.64
51067;BME280;37112;45.892;-123.962;2022-08-23T00:18:57;101912.95;;;22.71;68.68
51067;BME280;37112;45.892;-123.962;2022-08-23T00:21:10;101911.80;;;22.74;69.00
51067;BME280;37112;45.892;-123.962;2022-08-23T00:23:24;101911.39;;;22.76;68.13
51067;BME280;37112;45.892;-123.962;2022-08-23T00:25:38;101908.84;;;22.71;67.88
51067;BME280;37112;45.892;-123.962;2022-08-23T00:27:51;101911.63;;;22.74;68.64
51067;BME280;37112;45.892;-123.962;2022-08-23T00:30:07;101908.24;;;22.80;68.41
51067;BME280;37112;45.892;-123.962;2022-08-23T00:32:24;101906.05;;;22.86;68.20
51067;BME280;37112;45.892;-123.962;2022-08-23T00:34:39;101907.75;;;22.87;67.89
51067;BME280;37112;45.892;-123.962;2022-08-23T00:36:52;101906.20;;;22.85;67.86
51067;BME280;37112;45.892;-123.962;2022-08-23T00:39:06;101908.73;;;22.85;67.67
51067;BME280;37112;45.892;-123.962;2022-08-23T00:41:21;101908.98;;;22.73;67.16
51067;BME280;37112;45.892;-123.962;2022-08-23T00:43:37;101908.55;;;22.59;67.39
51067;BME280;37112;45.892;-123.962;2022-08-23T00:46:16;101903.98;;;22.40;67.16
51067;BME280;37112;45.892;-123.962;2022-08-23T00:48:48;101903.11;;;22.19;68.06
51067;BME280;37112;45.892;-123.962;2022-08-23T00:51:08;101903.89;;;22.12;68.49
51067;BME280;37112;45.892;-123.962;2022-08-23T00:53:25;101907.39;;;22.07;68.99
51067;BME280;37112;45.892;-123.962;2022-08-23T00:55:40;101904.63;;;22.08;69.41
51067;BME280;37112;45.892;-123.962;2022-08-23T00:57:54;101906.02;;;22.08;69.52
51067;BME280;37112;45.892;-123.962;2022-08-23T01:00:11;101902.44;;;22.10;70.14
51067;BME280;37112;45.892;-123.962;2022-08-23T01:02:24;101900.27;;;22.12;69.86
51067;BME280;37112;45.892;-123.962;2022-08-23T01:04:42;101898.58;;;22.12;69.85
51067;BME280;37112;45.892;-123.962;2022-08-23T01:07:01;101894.91;;;22.09;69.71
51067;BME280;37112;45.892;-123.962;2022-08-23T01:09:17;101892.64;;;22.02;69.40
51067;BME280;37112;45.892;-123.962;2022-08-23T01:11:35;101889.60;;;21.90;69.26
51067;BME280;37112;45.892;-123.962;2022-08-23T01:13:52;101889.42;;;21.85;69.92
51067;BME280;37112;45.892;-123.962;2022-08-23T01:16:09;101896.66;;;21.76;70.05
51067;BME280;37112;45.892;-123.962;2022-08-23T01:18:24;101887.25;;;21.70;70.18
51067;BME280;37112;45.892;-123.962;2022-08-23T01:20:41;101893.17;;;21.67;70.49
51067;BME280;37112;45.892;-123.962;2022-08-23T01:22:57;101892.51;;;21.68;70.57
51067;BME280;37112;45.892;-123.962;2022-08-23T01:25:15;101888.38;;;21.60;70.51
51067;BME280;37112;45.892;-123.962;2022-08-23T01:27:29;101887.99;;;21.55;71.02
51067;BME280;37112;45.892;-123.962;2022-08-23T01:29:42;101887.41;;;21.52;71.12
51067;BME280;37112;45.892;-123.962;2022-08-23T01:31:56;101885.81;;;21.52;71.21
51067;BME280;37112;45.892;-123.962;2022-08-23T01:34:11;101885.56;;;21.50;70.90
51067;BME280;37112;45.892;-123.962;2022-08-23T01:36:27;101884.21;;;21.44;70.85
51067;BME280;37112;45.892;-123.962;2022-08-23T01:38:41;101883.94;;;21.37;70.73
51067;BME280;37112;45.892;-123.962;2022-08-23T01:40:55;101882.31;;;21.31;70.77
51067;BME280;37112;45.892;-123.962;2022-08-23T01:43:09;101881.71;;;21.26;70.62
51067;BME280;37112;45.892;-123.962;2022-08-23T01:45:23;101873.52;;;21.19;70.91
51067;BME280;37112;45.892;-123.962;2022-08-23T01:47:37;101883.17;;;21.12;70.61
51067;BME280;37112;45.892;-123.962;2022-08-23T01:49:50;101883.89;;;21.05;70.95
51067;BME280;37112;45.892;-123.962;2022-08-23T01:52:04;101886.34;;;21.00;70.93
51067;BME280;37112;45.892;-123.962;2022-08-23T01:54:18;101890.65;;;20.96;71.19
51067;BME280;37112;45.892;-123.962;2022-08-23T01:56:32;101889.61;;;20.94;71.10
51067;BME280;37112;45.892;-123.962;2022-08-23T01:58:50;101885.09;;;20.88;71.06
51067;BME280;37112;45.892;-123.962;2022-08-23T02:01:06;101883.88;;;20.83;71.25
51067;BME280;37112;45.892;-123.962;2022-08-23T02:03:19;101882.88;;;20.77;71.22
51067;BME280;37112;45.892;-123.962;2022-08-23T02:05:33;101884.78;;;20.70;71.39
51067;BME280;37112;45.892;-123.962;2022-08-23T02:07:47;101890.34;;;20.63;71.66
51067;BME280;37112;45.892;-123.962;2022-08-23T02:10:00;101889.98;;;20.55;71.96
51067;BME280;37112;45.892;-123.962;2022-08-23T02:12:14;101890.65;;;20.51;72.16
51067;BME280;37112;45.892;-123.962;2022-08-23T02:14:33;101891.35;;;20.45;72.29
51067;BME280;37112;45.892;-123.962;2022-08-23T02:16:53;101890.69;;;20.39;72.44
51067;BME280;37112;45.892;-123.962;2022-08-23T02:19:14;101892.31;;;20.30;72.60
51067;BME280;37112;45.892;-123.962;2022-08-23T02:21:28;101894.92;;;20.24;72.78
51067;BME280;37112;45.892;-123.962;2022-08-23T02:23:42;101894.16;;;20.18;72.80
51067;BME280;37112;45.892;-123.962;2022-08-23T02:25:55;101891.63;;;20.12;72.96
51067;BME280;37112;45.892;-123.962;2022-08-23T02:28:08;101894.20;;;20.07;72.90
51067;BME280;37112;45.892;-123.962;2022-08-23T02:30:22;101891.48;;;20.00;73.10
51067;BME280;37112;45.892;-123.962;2022-08-23T02:32:35;101891.74;;;19.91;73.23
51067;BME280;37112;45.892;-123.962;2022-08-23T02:34:48;101886.94;;;19.80;73.53
51067;BME280;37112;45.892;-123.962;2022-08-23T02:37:15;101890.43;;;19.71;73.63
51067;BME280;37112;45.892;-123.962;2022-08-23T02:39:29;101890.98;;;19.66;73.68
51067;BME280;37112;45.892;-123.962;2022-08-23T02:41:43;101889.59;;;19.62;73.71
51067;BME280;37112;45.892;-123.962;2022-08-23T02:43:56;101893.75;;;19.62;73.92
51067;BME280;37112;45.892;-123.962;2022-08-23T02:46:10;101894.54;;;19.61;73.79
51067;BME280;37112;45.892;-123.962;2022-08-23T02:48:24;101893.91;;;19.62;73.82
51067;BME280;37112;45.892;-123.962;2022-08-23T02:50:43;101892.88;;;19.61;73.73
51067;BME280;37112;45.892;-123.962;2022-08-23T02:52:57;101900.33;;;19.63;73.64
51067;BME280;37112;45.892;-123.962;2022-08-23T02:55:11;101900.00;;;19.64;73.62
51067;BME280;37112;45.892;-123.962;2022-08-23T02:57:24;101904.68;;;19.60;73.44
51067;BME280;37112;45.892;-123.962;2022-08-23T02:59:41;101903.63;;;19.58;73.61
51067;BME280;37112;45.892;-123.962;2022-08-23T03:01:54;101900.07;;;19.55;73.69
51067;BME280;37112;45.892;-123.962;2022-08-23T03:04:12;101903.80;;;19.56;73.68
51067;BME280;37112;45.892;-123.962;2022-08-23T03:06:26;101906.52;;;19.56;73.83
51067;BME280;37112;45.892;-123.962;2022-08-23T03:08:39;101908.77;;;19.57;73.79
51067;BME280;37112;45.892;-123.962;2022-08-23T03:10:53;101913.77;;;19.57;73.79
51067;BME280;37112;45.892;-123.962;2022-08-23T03:13:06;101916.30;;;19.55;73.57
51067;BME280;37112;45.892;-123.962;2022-08-23T03:15:20;101917.95;;;19.52;73.60
51067;BME280;37112;45.892;-123.962;2022-08-23T03:17:33;101918.77;;;19.49;73.59
51067;BME280;37112;45.892;-123.962;2022-08-23T03:19:47;101921.15;;;19.46;73.63
51067;BME280;37112;45.892;-123.962;2022-08-23T03:22:01;101928.48;;;19.43;73.65
51067;BME280;37112;45.892;-123.962;2022-08-23T03:24:15;101928.34;;;19.38;73.52
51067;BME280;37112;45.892;-123.962;2022-08-23T03:26:28;101929.44;;;19.36;73.64
51067;BME280;37112;45.892;-123.962;2022-08-23T03:28:42;101931.68;;;19.33;73.62
51067;BME280;37112;45.892;-123.962;2022-08-23T03:30:57;101929.29;;;19.32;73.84
51067;BME280;37112;45.892;-123.962;2022-08-23T03:33:11;101931.92;;;19.31;73.66
51067;BME280;37112;45.892;-123.962;2022-08-23T03:35:24;101932.73;;;19.27;73.85
51067;BME280;37112;45.892;-123.962;2022-08-23T03:37:38;101934.73;;;19.23;73.71
51067;BME280;37112;45.892;-123.962;2022-08-23T03:39:52;101942.11;;;19.18;73.82
51067;BME280;37112;45.892;-123.962;2022-08-23T03:42:07;101946.13;;;19.15;73.87
51067;BME280;37112;45.892;-123.962;2022-08-23T03:44:20;101948.64;;;19.11;73.88
51067;BME280;37112;45.892;-123.962;2022-08-23T03:46:34;101953.28;;;19.08;73.93
51067;BME280;37112;45.892;-123.962;2022-08-23T03:48:48;101955.42;;;19.03;74.05
51067;BME280;37112;45.892;-123.962;2022-08-23T03:51:01;101954.92;;;19.01;74.05
51067;BME280;37112;45.892;-123.962;2022-08-23T03:53:15;101954.15;;;19.00;74.27
51067;BME280;37112;45.892;-123.962;2022-08-23T03:55:29;101960.94;;;18.98;74.26
51067;BME280;37112;45.892;-123.962;2022-08-23T03:57:53;101966.80;;;18.95;74.35
51067;BME280;37112;45.892;-123.962;2022-08-23T04:00:08;101964.65;;;18.92;74.45
51067;BME280;37112;45.892;-123.962;2022-08-23T04:02:29;101966.31;;;18.94;74.59
51067;BME280;37112;45.892;-123.962;2022-08-23T04:04:43;101965.52;;;18.95;74.74
51067;BME280;37112;45.892;-123.962;2022-08-23T04:07:09;101969.33;;;18.95;74.83
51067;BME280;37112;45.892;-123.962;2022-08-23T04:09:22;101969.55;;;18.96;74.99
51067;BME280;37112;45.892;-123.962;2022-08-23T04:11:36;101972.70;;;18.99;75.20
51067;BME280;37112;45.892;-123.962;2022-08-23T04:13:49;101974.27;;;19.02;75.23
51067;BME280;37112;45.892;-123.962;2022-08-23T04:16:04;101975.23;;;19.03;75.09
51067;BME280;37112;45.892;-123.962;2022-08-23T04:18:18;101974.05;;;19.05;75.12
51067;BME280;37112;45.892;-123.962;2022-08-23T04:20:32;101976.98;;;19.06;75.19
51067;BME280;37112;45.892;-123.962;2022-08-23T04:22:46;101974.59;;;19.05;75.27
51067;BME280;37112;45.892;-123.962;2022-08-23T04:25:06;101977.96;;;19.03;75.21
51067;BME280;37112;45.892;-123.962;2022-08-23T04:27:39;101973.60;;;19.01;75.08
51067;BME280;37112;45.892;-123.962;2022-08-23T04:29:52;101972.14;;;19.00;75.19
51067;BME280;37112;45.892;-123.962;2022-08-23T04:32:08;101973.81;;;18.99;75.22
51067;BME280;37112;45.892;-123.962;2022-08-23T04:34:22;101969.44;;;19.00;75.48
51067;BME280;37112;45.892;-123.962;2022-08-23T04:36:41;101967.19;;;18.99;75.45
51067;BME280;37112;45.892;-123.962;2022-08-23T04:39:03;101968.61;;;18.99;75.44
51067;BME280;37112;45.892;-123.962;2022-08-23T04:41:18;101967.72;;;18.97;75.42
51067;BME280;37112;45.892;-123.962;2022-08-23T04:43:48;101965.35;;;18.97;75.66
51067;BME280;37112;45.892;-123.962;2022-08-23T04:46:01;101961.80;;;18.99;75.70
51067;BME280;37112;45.892;-123.962;2022-08-23T04:48:15;101963.17;;;18.99;75.59
51067;BME280;37112;45.892;-123.962;2022-08-23T04:50:30;101961.77;;;18.99;75.73
51067;BME280;37112;45.892;-123.962;2022-08-23T04:53:09;101962.94;;;19.00;75.87
51067;BME280;37112;45.892;-123.962;2022-08-23T04:55:31;101960.58;;;18.98;75.74
51067;BME280;37112;45.892;-123.962;2022-08-23T04:57:47;101961.59;;;18.97;75.76
51067;BME280;37112;45.892;-123.962;2022-08-23T05:00:03;101962.83;;;18.97;75.89
51067;BME280;37112;45.892;-123.962;2022-08-23T05:02:19;101962.14;;;18.99;76.03
51067;BME280;37112;45.892;-123.962;2022-08-23T05:04:36;101960.96;;;18.98;75.96
51067;BME280;37112;45.892;-123.962;2022-08-23T05:06:51;101962.00;;;18.96;76.00
51067;BME280;37112;45.892;-123.962;2022-08-23T05:09:04;101960.23;;;18.93;75.93
51067;BME280;37112;45.892;-123.962;2022-08-23T05:11:18;101963.50;;;18.93;76.14
51067;BME280;37112;45.892;-123.962;2022-08-23T05:13:32;101957.05;;;18.90;76.15
51067;BME280;37112;45.892;-123.962;2022-08-23T05:15:45;101959.61;;;18.90;76.29
51067;BME280;37112;45.892;-123.962;2022-08-23T05:18:08;101958.00;;;18.88;76.26
51067;BME280;37112;45.892;-123.962;2022-08-23T05:20:22;101958.50;;;18.86;76.19
51067;BME280;37112;45.892;-123.962;2022-08-23T05:22:37;101957.41;;;18.84;76.30
51067;BME280;37112;45.892;-123.962;2022-08-23T05:25:17;101955.51;;;18.79;76.25
51067;BME280;37112;45.892;-123.962;2022-08-23T05:27:31;101956.85;;;18.76;76.42
51067;BME280;37112;45.892;-123.962;2022-08-23T05:29:45;101956.14;;;18.76;76.47
51067;BME280;37112;45.892;-123.962;2022-08-23T05:31:59;101955.50;;;18.74;76.58
51067;BME280;37112;45.892;-123.962;2022-08-23T05:34:13;101953.15;;;18.75;76.67
51067;BME280;37112;45.892;-123.962;2022-08-23T05:36:34;101952.09;;;18.74;76.74
51067;BME280;37112;45.892;-123.962;2022-08-23T05:38:57;101949.48;;;18.74;76.61
51067;BME280;37112;45.892;-123.962;2022-08-23T05:41:11;101945.21;;;18.73;76.76
51067;BME280;37112;45.892;-123.962;2022-08-23T05:43:26;101947.91;;;18.73;76.84
51067;BME280;37112;45.892;-123.962;2022-08-23T05:45:40;101947.43;;;18.74;76.94
51067;BME280;37112;45.892;-123.962;2022-08-23T05:47:53;101948.45;;;18.73;76.88
51067;BME280;37112;45.892;-123.962;2022-08-23T05:50:28;101951.21;;;18.70;76.98
51067;BME280;37112;45.892;-123.962;2022-08-23T05:52:43;101952.61;;;18.68;76.80
51067;BME280;37112;45.892;-123.962;2022-08-23T05:55:00;101950.73;;;18.67;76.88
51067;BME280;37112;45.892;-123.962;2022-08-23T05:57:35;101951.21;;;18.63;76.88
51067;BME280;37112;45.892;-123.962;2022-08-23T05:59:49;101949.19;;;18.61;77.02
51067;BME280;37112;45.892;-123.962;2022-08-23T06:02:02;101947.16;;;18.60;77.01
51067;BME280;37112;45.892;-123.962;2022-08-23T06:04:15;101949.05;;;18.58;77.15
51067;BME280;37112;45.892;-123.962;2022-08-23T06:06:29;101950.09;;;18.57;77.18
51067;BME280;37112;45.892;-123.962;2022-08-23T06:08:47;101949.30;;;18.55;77.23
51067;BME280;37112;45.892;-123.962;2022-08-23T06:11:05;101951.39;;;18.54;77.09
51067;BME280;37112;45.892;-123.962;2022-08-23T06:13:22;101947.24;;;18.52;77.30
51067;BME280;37112;45.892;-123.962;2022-08-23T06:15:35;101943.64;;;18.48;77.10
51067;BME280;37112;45.892;-123.962;2022-08-23T06:17:50;101940.95;;;18.46;77.18
51067;BME280;37112;45.892;-123.962;2022-08-23T06:20:04;101942.65;;;18.45;77.40
51067;BME280;37112;45.892;-123.962;2022-08-23T06:22:35;101939.61;;;18.44;77.50
51067;BME280;37112;45.892;-123.962;2022-08-23T06:24:48;101939.03;;;18.45;77.48
51067;BME280;37112;45.892;-123.962;2022-08-23T06:27:09;101939.38;;;18.45;77.50
51067;BME280;37112;45.892;-123.962;2022-08-23T06:29:23;101937.83;;;18.44;77.42
51067;BME280;37112;45.892;-123.962;2022-08-23T06:32:03;101936.23;;;18.44;77.55
51067;BME280;37112;45.892;-123.962;2022-08-23T06:34:26;101942.21;;;18.43;77.53
51067;BME280;37112;45.892;-123.962;2022-08-23T06:37:02;101936.74;;;18.44;77.66
51067;BME280;37112;45.892;-123.962;2022-08-23T06:39:36;101935.98;;;18.44;77.67
51067;BME280;37112;45.892;-123.962;2022-08-23T06:42:10;101934.98;;;18.44;77.61
51067;BME280;37112;45.892;-123.962;2022-08-23T06:44:44;101931.80;;;18.43;77.57
51067;BME280;37112;45.892;-123.962;2022-08-23T06:47:20;101930.36;;;18.43;77.45
51067;BME280;37112;45.892;-123.962;2022-08-23T06:49:33;101929.49;;;18.41;77.35
51067;BME280;37112;45.892;-123.962;2022-08-23T06:51:48;101931.36;;;18.40;77.46
51067;BME280;37112;45.892;-123.962;2022-08-23T06:54:12;101925.77;;;18.40;77.49
51067;BME280;37112;45.892;-123.962;2022-08-23T06:56:35;101927.48;;;18.39;77.34
51067;BME280;37112;45.892;-123.962;2022-08-23T06:58:54;101923.99;;;18.37;77.32
51067;BME280;37112;45.892;-123.962;2022-08-23T07:01:33;101926.02;;;18.37;77.29
51067;BME280;37112;45.892;-123.962;2022-08-23T07:04:01;101923.65;;;18.37;77.47
51067;BME280;37112;45.892;-123.962;2022-08-23T07:06:47;101926.42;;;18.38;77.40
51067;BME280;37112;45.892;-123.962;2022-08-23T07:09:01;101923.42;;;18.38;77.30
51067;BME280;37112;45.892;-123.962;2022-08-23T07:11:14;101921.35;;;18.36;77.36
51067;BME280;37112;45.892;-123.962;2022-08-23T07:13:27;101919.95;;;18.36;77.20
51067;BME280;37112;45.892;-123.962;2022-08-23T07:15:41;101917.95;;;18.36;77.30
51067;BME280;37112;45.892;-123.962;2022-08-23T07:18:01;101915.11;;;18.36;77.20
51067;BME280;37112;45.892;-123.962;2022-08-23T07:20:16;101914.02;;;18.36;77.27
51067;BME280;37112;45.892;-123.962;2022-08-23T07:22:29;101912.96;;;18.35;77.36
51067;BME280;37112;45.892;-123.962;2022-08-23T07:24:43;101914.09;;;18.35;77.17
51067;BME280;37112;45.892;-123.962;2022-08-23T07:26:57;101913.72;;;18.37;77.24
51067;BME280;37112;45.892;-123.962;2022-08-23T07:29:12;101914.67;;;18.37;77.00
51067;BME280;37112;45.892;-123.962;2022-08-23T07:31:28;101909.36;;;18.36;77.09
51067;BME280;37112;45.892;-123.962;2022-08-23T07:33:42;101911.71;;;18.36;76.99
51067;BME280;37112;45.892;-123.962;2022-08-23T07:36:00;101912.04;;;18.34;76.95
51067;BME280;37112;45.892;-123.962;2022-08-23T07:38:13;101906.65;;;18.34;77.09
51067;BME280;37112;45.892;-123.962;2022-08-23T07:40:27;101909.83;;;18.34;77.06
51067;BME280;37112;45.892;-123.962;2022-08-23T07:42:47;101908.70;;;18.35;77.08
51067;BME280;37112;45.892;-123.962;2022-08-23T07:45:02;101904.59;;;18.35;77.04
51067;BME280;37112;45.892;-123.962;2022-08-23T07:47:18;101902.16;;;18.36;77.06
51067;BME280;37112;45.892;-123.962;2022-08-23T07:49:32;101901.92;;;18.37;77.12
51067;BME280;37112;45.892;-123.962;2022-08-23T07:51:48;101901.14;;;18.37;77.13
51067;BME280;37112;45.892;-123.962;2022-08-23T07:54:03;101903.24;;;18.38;77.16
51067;BME280;37112;45.892;-123.962;2022-08-23T07:56:24;101901.88;;;18.37;76.95
51067;BME280;37112;45.892;-123.962;2022-08-23T07:58:46;101903.98;;;18.38;76.97
51067;BME280;37112;45.892;-123.962;2022-08-23T08:01:31;101902.73;;;18.40;77.21
51067;BME280;37112;45.892;-123.962;2022-08-23T08:03:46;101903.52;;;18.41;77.12
51067;BME280;37112;45.892;-123.962;2022-08-23T08:06:11;101902.16;;;18.43;77.13
51067;BME280;37112;45.892;-123.962;2022-08-23T08:08:25;101898.27;;;18.42;77.06
51067;BME280;37112;45.892;-123.962;2022-08-23T08:10:40;101899.23;;;18.41;76.86
51067;BME280;37112;45.892;-123.962;2022-08-23T08:12:53;101896.16;;;18.37;76.69
51067;BME280;37112;45.892;-123.962;2022-08-23T08:15:07;101893.80;;;18.35;76.67
51067;BME280;37112;45.892;-123.962;2022-08-23T08:17:21;101897.14;;;18.34;76.67
51067;BME280;37112;45.892;-123.962;2022-08-23T08:19:58;101894.57;;;18.32;76.76
51067;BME280;37112;45.892;-123.962;2022-08-23T08:22:33;101894.58;;;18.30;76.86
51067;BME280;37112;45.892;-123.962;2022-08-23T08:24:52;101892.27;;;18.32;77.05
51067;BME280;37112;45.892;-123.962;2022-08-23T08:27:06;101884.95;;;18.33;77.09
51067;BME280;37112;45.892;-123.962;2022-08-23T08:29:20;101884.38;;;18.33;76.88
51067;BME280;37112;45.892;-123.962;2022-08-23T08:31:34;101882.40;;;18.33;76.91
51067;BME280;37112;45.892;-123.962;2022-08-23T08:33:48;101878.93;;;18.32;76.83
51067;BME280;37112;45.892;-123.962;2022-08-23T08:36:02;101877.69;;;18.30;76.85
51067;BME280;37112;45.892;-123.962;2022-08-23T08:38:15;101876.58;;;18.30;77.03
51067;BME280;37112;45.892;-123.962;2022-08-23T08:40:32;101872.36;;;18.29;76.90
51067;BME280;37112;45.892;-123.962;2022-08-23T08:43:11;101871.59;;;18.27;76.82
51067;BME280;37112;45.892;-123.962;2022-08-23T08:45:30;101863.64;;;18.26;76.78
51067;BME280;37112;45.892;-123.962;2022-08-23T08:47:48;101865.12;;;18.23;76.93
51067;BME280;37112;45.892;-123.962;2022-08-23T08:50:05;101860.25;;;18.21;76.85
51067;BME280;37112;45.892;-123.962;2022-08-23T08:52:23;101858.79;;;18.19;76.78
51067;BME280;37112;45.892;-123.962;2022-08-23T08:54:45;101856.33;;;18.14;76.65
51067;BME280;37112;45.892;-123.962;2022-08-23T08:57:02;101854.44;;;18.10;76.89
51067;BME280;37112;45.892;-123.962;2022-08-23T08:59:26;101856.04;;;18.08;76.94
51067;BME280;37112;45.892;-123.962;2022-08-23T09:01:42;101853.99;;;18.07;77.01
51067;BME280;37112;45.892;-123.962;2022-08-23T09:04:02;101850.41;;;18.05;76.96
51067;BME280;37112;45.892;-123.962;2022-08-23T09:06:22;101854.88;;;18.07;76.99
51067;BME280;37112;45.892;-123.962;2022-08-23T09:08:46;101850.24;;;18.07;77.03
51067;BME280;37112;45.892;-123.962;2022-08-23T09:11:10;101856.71;;;18.07;77.05
51067;BME280;37112;45.892;-123.962;2022-08-23T09:13:52;101859.63;;;18.09;77.12
51067;BME280;37112;45.892;-123.962;2022-08-23T09:16:20;101859.71;;;18.09;76.95
51067;BME280;37112;45.892;-123.962;2022-08-23T09:18:38;101860.91;;;18.08;76.97
51067;BME280;37112;45.892;-123.962;2022-08-23T09:20:53;101862.05;;;18.07;76.99
51067;BME280;37112;45.892;-123.962;2022-08-23T09:23:14;101863.84;;;18.05;76.92
51067;BME280;37112;45.892;-123.962;2022-08-23T09:25:31;101861.92;;;18.04;76.89
51067;BME280;37112;45.892;-123.962;2022-08-23T09:27:57;101862.19;;;18.03;77.01
51067;BME280;37112;45.892;-123.962;2022-08-23T09:30:13;101862.21;;;18.03;77.04
51067;BME280;37112;45.892;-123.962;2022-08-23T09:32:32;101862.91;;;18.01;76.78
51067;BME280;37112;45.892;-123.962;2022-08-23T09:34:50;101861.48;;;17.97;76.66
51067;BME280;37112;45.892;-123.962;2022-08-23T09:37:15;101865.75;;;17.95;76.70
51067;BME280;37112;45.892;-123.962;2022-08-23T09:39:31;101864.36;;;17.90;76.45
51067;BME280;37112;45.892;-123.962;2022-08-23T09:41:46;101863.02;;;17.87;76.42
51067;BME280;37112;45.892;-123.962;2022-08-23T09:44:00;101866.96;;;17.85;76.56
51067;BME280;37112;45.892;-123.962;2022-08-23T09:46:26;101866.36;;;17.84;76.68
51067;BME280;37112;45.892;-123.962;2022-08-23T09:48:42;101865.52;;;17.83;76.72
51067;BME280;37112;45.892;-123.962;2022-08-23T09:51:15;101865.48;;;17.80;76.57
51067;BME280;37112;45.892;-123.962;2022-08-23T09:53:30;101862.40;;;17.79;76.68
51067;BME280;37112;45.892;-123.962;2022-08-23T09:55:51;101860.05;;;17.77;76.78
51067;BME280;37112;45.892;-123.962;2022-08-23T09:58:15;101862.27;;;17.76;76.77
51067;BME280;37112;45.892;-123.962;2022-08-23T10:00:26;101858.25;;;17.75;76.78
51067;BME280;37112;45.892;-123.962;2022-08-23T10:02:40;101856.14;;;17.71;76.84
51067;BME280;37112;45.892;-123.962;2022-08-23T10:05:05;101854.29;;;17.67;76.83
51067;BME280;37112;45.892;-123.962;2022-08-23T10:07:34;101851.89;;;17.66;77.04
51067;BME280;37112;45.892;-123.962;2022-08-23T10:09:53;101849.61;;;17.65;77.23
51067;BME280;37112;45.892;-123.962;2022-08-23T10:12:07;101849.45;;;17.65;77.20
51067;BME280;37112;45.892;-123.962;2022-08-23T10:14:22;101849.62;;;17.65;77.21
51067;BME280;37112;45.892;-123.962;2022-08-23T10:16:44;101851.74;;;17.65;77.35
51067;BME280;37112;45.892;-123.962;2022-08-23T10:19:08;101849.58;;;17.66;77.35
51067;BME280;37112;45.892;-123.962;2022-08-23T10:21:27;101849.73;;;17.68;77.58
51067;BME280;37112;45.892;-123.962;2022-08-23T10:23:54;101848.16;;;17.73;77.80
51067;BME280;37112;45.892;-123.962;2022-08-23T10:26:13;101846.07;;;17.76;77.75
51067;BME280;37112;45.892;-123.962;2022-08-23T10:28:37;101843.98;;;17.78;77.71
51067;BME280;37112;45.892;-123.962;2022-08-23T10:31:13;101848.27;;;17.76;77.43
51067;BME280;37112;45.892;-123.962;2022-08-23T10:33:38;101848.86;;;17.71;77.31
51067;BME280;37112;45.892;-123.962;2022-08-23T10:35:59;101844.77;;;17.65;77.39
51067;BME280;37112;45.892;-123.962;2022-08-23T10:38:39;101845.80;;;17.63;77.72
51067;BME280;37112;45.892;-123.962;2022-08-23T10:41:00;101849.11;;;17.63;78.10
51067;BME280;37112;45.892;-123.962;2022-08-23T10:43:22;101846.86;;;17.59;78.07
51067;BME280;37112;45.892;-123.962;2022-08-23T10:45:40;101845.94;;;17.60;78.26
51067;BME280;37112;45.892;-123.962;2022-08-23T10:48:22;101846.27;;;17.60;78.35
51067;BME280;37112;45.892;-123.962;2022-08-23T10:50:43;101848.52;;;17.56;78.42
51067;BME280;37112;45.892;-123.962;2022-08-23T10:53:10;101850.34;;;17.54;78.43
51067;BME280;37112;45.892;-123.962;2022-08-23T10:55:27;101848.54;;;17.52;78.51
51067;BME280;37112;45.892;-123.962;2022-08-23T10:57:54;101851.66;;;17.53;78.90
51067;BME280;37112;45.892;-123.962;2022-08-23T11:00:12;101846.23;;;17.51;78.78
51067;BME280;37112;45.892;-123.962;2022-08-23T11:02:31;101845.17;;;17.49;78.73
51067;BME280;37112;45.892;-123.962;2022-08-23T11:05:19;101842.87;;;17.48;78.81
51067;BME280;37112;45.892;-123.962;2022-08-23T11:07:36;101844.84;;;17.46;78.84
51067;BME280;37112;45.892;-123.962;2022-08-23T11:10:11;101844.27;;;17.45;78.93
51067;BME280;37112;45.892;-123.962;2022-08-23T11:12:31;101841.78;;;17.44;78.88
51067;BME280;37112;45.892;-123.962;2022-08-23T11:14:56;101838.08;;;17.45;79.04
51067;BME280;37112;45.892;-123.962;2022-08-23T11:17:22;101838.57;;;17.46;78.99
51067;BME280;37112;45.892;-123.962;2022-08-23T11:19:52;101840.27;;;17.45;79.13
51067;BME280;37112;45.892;-123.962;2022-08-23T11:22:17;101837.00;;;17.45;79.25
51067;BME280;37112;45.892;-123.962;2022-08-23T11:24:51;101837.32;;;17.46;79.20
51067;BME280;37112;45.892;-123.962;2022-08-23T11:27:07;101836.73;;;17.46;79.31
51067;BME280;37112;45.892;-123.962;2022-08-23T11:29:32;101840.64;;;17.47;79.33
51067;BME280;37112;45.892;-123.962;2022-08-23T11:32:18;101841.45;;;17.48;79.33
51067;BME280;37112;45.892;-123.962;2022-08-23T11:34:46;101841.27;;;17.46;79.45
51067;BME280;37112;45.892;-123.962;2022-08-23T11:37:28;101846.14;;;17.43;79.45